Wetterdaten: Woche 15.04.24 - 21.04.24 (KW16)
Datum Zeit Temp. I. Temp. A. Feuchte I. Feuchte A. Luftdruck Regen Wind Richtung Sonnenschein Solar Taupunkt Windchill Windböen
15.04.2024 00:00 21,7 °C 9,1 °C 55 % 85 % 1015,9 hPa 0,0 l/m² 0,1 km/h (0 Bft) W 0,00 h 0 W/m² 6,8 °C 9,1 °C 0,2 km/h (0 Bft)
15.04.2024 01:00 21,8 °C 9,1 °C 55 % 87 % 1015,3 hPa 0,0 l/m² 0,7 km/h (0 Bft) W 0,00 h 0 W/m² 7,1 °C 9,1 °C 1,6 km/h (1 Bft)
15.04.2024 02:00 21,8 °C 9,1 °C 55 % 88 % 1015,2 hPa 0,0 l/m² 1,0 km/h (0 Bft) W 0,00 h 0 W/m² 7,3 °C 9,1 °C 2,5 km/h (1 Bft)
15.04.2024 03:00 21,7 °C 9,3 °C 55 % 81 % 1015,0 hPa 0,8 l/m² 4,7 km/h (1 Bft) NW 0,00 h 0 W/m² 6,3 °C 9,2 °C 9,6 km/h (2 Bft)
15.04.2024 04:00 21,7 °C 8,1 °C 55 % 87 % 1014,8 hPa 1,0 l/m² 4,9 km/h (1 Bft) W 0,00 h 0 W/m² 6,1 °C 7,6 °C 10,4 km/h (2 Bft)
15.04.2024 05:00 21,6 °C 7,4 °C 55 % 90 % 1013,9 hPa 0,2 l/m² 2,3 km/h (1 Bft) W-SW 0,00 h 0 W/m² 5,9 °C 7,3 °C 4,5 km/h (1 Bft)
15.04.2024 06:00 21,6 °C 7,2 °C 54 % 92 % 1012,8 hPa 0,2 l/m² 3,5 km/h (1 Bft) S-SO 0,00 h 8 W/m² 6,1 °C 7,2 °C 6,2 km/h (2 Bft)
15.04.2024 07:00 21,6 °C 7,5 °C 54 % 93 % 1012,4 hPa 0,0 l/m² 5,9 km/h (2 Bft) S-SO 0,00 h 34 W/m² 6,5 °C 7,1 °C 9,8 km/h (2 Bft)
15.04.2024 08:00 21,7 °C 8,3 °C 54 % 92 % 1012,0 hPa 0,0 l/m² 8,8 km/h (2 Bft) S-SW 0,65 h 88 W/m² 7,0 °C 6,4 °C 12,7 km/h (3 Bft)
15.04.2024 09:00 21,7 °C 9,5 °C 54 % 89 % 1011,4 hPa 0,0 l/m² 11,9 km/h (2 Bft) S 1,00 h 198 W/m² 7,7 °C 6,0 °C 16,9 km/h (3 Bft)
15.04.2024 10:00 21,7 °C 9,7 °C 54 % 87 % 1010,7 hPa 0,0 l/m² 12,2 km/h (2 Bft) S 1,02 h 220 W/m² 7,7 °C 6,2 °C 17,6 km/h (3 Bft)
15.04.2024 11:00 21,8 °C 11,6 °C 53 % 83 % 1010,0 hPa 0,0 l/m² 11,2 km/h (2 Bft) S 1,00 h 479 W/m² 8,8 °C 8,8 °C 16,2 km/h (3 Bft)
15.04.2024 12:00 21,9 °C 11,8 °C 53 % 82 % 1009,0 hPa 0,0 l/m² 10,5 km/h (2 Bft) S 1,00 h 357 W/m² 8,8 °C 9,4 °C 15,1 km/h (3 Bft)
15.04.2024 13:00 22,2 °C 13,6 °C 53 % 78 % 1007,0 hPa 0,0 l/m² 6,4 km/h (2 Bft) SO 1,00 h 410 W/m² 9,8 °C 13,0 °C 9,9 km/h (2 Bft)
15.04.2024 14:00 22,2 °C 14,6 °C 53 % 71 % 1005,3 hPa 0,0 l/m² 10,1 km/h (2 Bft) S 1,00 h 467 W/m² 9,4 °C 12,6 °C 14,4 km/h (3 Bft)
15.04.2024 15:00 22,3 °C 15,4 °C 53 % 64 % 1003,7 hPa 0,0 l/m² 13,8 km/h (3 Bft) S-SW 1,00 h 433 W/m² 8,7 °C 12,1 °C 19,2 km/h (3 Bft)
15.04.2024 16:00 22,1 °C 15,6 °C 52 % 59 % 1002,2 hPa 0,0 l/m² 15,4 km/h (3 Bft) S-SW 1,00 h 318 W/m² 7,7 °C 11,8 °C 21,0 km/h (4 Bft)
15.04.2024 17:00 22,0 °C 16,3 °C 51 % 56 % 1000,5 hPa 0,0 l/m² 14,3 km/h (3 Bft) S-SW 1,00 h 364 W/m² 7,4 °C 13,0 °C 20,1 km/h (4 Bft)
15.04.2024 18:00 21,9 °C 15,1 °C 52 % 56 % 999,2 hPa 0,0 l/m² 13,3 km/h (3 Bft) SW 0,53 h 71 W/m² 6,4 °C 12,3 °C 18,7 km/h (3 Bft)
15.04.2024 19:00 21,9 °C 12,6 °C 53 % 63 % 998,7 hPa 0,0 l/m² 19,0 km/h (3 Bft) SW 0,05 h 25 W/m² 5,8 °C 7,4 °C 25,7 km/h (4 Bft)
15.04.2024 20:00 21,8 °C 10,6 °C 54 % 71 % 997,8 hPa 0,0 l/m² 9,4 km/h (2 Bft) S-SW 0,00 h 5 W/m² 5,5 °C 8,9 °C 12,8 km/h (3 Bft)
15.04.2024 21:00 21,9 °C 9,4 °C 54 % 74 % 999,7 hPa 0,6 l/m² 26,9 km/h (4 Bft) W-SW 0,00 h 0 W/m² 4,8 °C 1,3 °C 36,7 km/h (5 Bft)
15.04.2024 22:00 21,7 °C 6,3 °C 54 % 86 % 1000,9 hPa 0,0 l/m² 20,4 km/h (4 Bft) W-SW 0,00 h 0 W/m² 4,1 °C -1,7 °C 28,3 km/h (5 Bft)
15.04.2024 23:00 21,6 °C 6,0 °C 54 % 85 % 1001,5 hPa 0,0 l/m² 17,9 km/h (3 Bft) W-SW 0,00 h 0 W/m² 3,6 °C -0,9 °C 25,3 km/h (4 Bft)
16.04.2024 00:00 21,6 °C 5,7 °C 54 % 83 % 1002,0 hPa 0,0 l/m² 17,3 km/h (3 Bft) SW 0,00 h 0 W/m² 3,1 °C -1,0 °C 26,0 km/h (4 Bft)
16.04.2024 01:00 21,6 °C 4,4 °C 54 % 85 % 1002,2 hPa 0,0 l/m² 13,8 km/h (3 Bft) SW 0,00 h 0 W/m² 2,0 °C -0,9 °C 20,4 km/h (4 Bft)
16.04.2024 02:00 21,5 °C 3,1 °C 54 % 90 % 1001,8 hPa 0,0 l/m² 7,6 km/h (2 Bft) S-SW 0,00 h 0 W/m² 1,5 °C 1,2 °C 11,8 km/h (2 Bft)
16.04.2024 03:00 21,5 °C 4,8 °C 53 % 86 % 1001,5 hPa 0,0 l/m² 16,5 km/h (3 Bft) S-SW 0,00 h 0 W/m² 2,6 °C -1,8 °C 22,9 km/h (4 Bft)
16.04.2024 04:00 21,5 °C 5,3 °C 53 % 83 % 1001,0 hPa 0,0 l/m² 15,6 km/h (3 Bft) SW 0,00 h 0 W/m² 2,6 °C -0,8 °C 23,3 km/h (4 Bft)
16.04.2024 05:00 21,5 °C 4,8 °C 53 % 83 % 1000,7 hPa 0,0 l/m² 15,1 km/h (3 Bft) SW 0,00 h 0 W/m² 2,2 °C -1,0 °C 22,4 km/h (4 Bft)
16.04.2024 06:00 21,4 °C 4,4 °C 53 % 84 % 1000,8 hPa 0,0 l/m² 6,8 km/h (2 Bft) SW 0,00 h 19 W/m² 2,0 °C 3,1 °C 12,0 km/h (2 Bft)
16.04.2024 07:00 21,3 °C 5,2 °C 51 % 84 % 1001,3 hPa 0,0 l/m² 8,4 km/h (2 Bft) S-SW 0,77 h 124 W/m² 2,7 °C 3,4 °C 12,7 km/h (3 Bft)
16.04.2024 08:00 21,5 °C 7,4 °C 51 % 78 % 1001,5 hPa 0,0 l/m² 15,6 km/h (3 Bft) SW 0,98 h 299 W/m² 3,8 °C 1,8 °C 22,4 km/h (4 Bft)
16.04.2024 09:00 21,6 °C 7,7 °C 51 % 75 % 1001,7 hPa 0,0 l/m² 20,4 km/h (4 Bft) SW 1,02 h 247 W/m² 3,5 °C 0,2 °C 29,2 km/h (5 Bft)
16.04.2024 10:00 21,5 °C 7,7 °C 51 % 73 % 1001,8 hPa 0,0 l/m² 19,3 km/h (3 Bft) S-SW 1,00 h 133 W/m² 3,1 °C 0,6 °C 27,0 km/h (5 Bft)
16.04.2024 11:00 21,4 °C 8,3 °C 51 % 73 % 1001,7 hPa 0,0 l/m² 20,7 km/h (4 Bft) SW 1,00 h 265 W/m² 3,8 °C 1,0 °C 28,9 km/h (5 Bft)
16.04.2024 12:00 21,7 °C 10,4 °C 51 % 68 % 1001,2 hPa 0,0 l/m² 22,8 km/h (4 Bft) SW 1,00 h 622 W/m² 4,7 °C 3,0 °C 32,1 km/h (5 Bft)
16.04.2024 13:00 21,8 °C 10,8 °C 50 % 66 % 1000,9 hPa 0,0 l/m² 20,9 km/h (4 Bft) SW 1,00 h 436 W/m² 4,6 °C 4,1 °C 28,7 km/h (5 Bft)
16.04.2024 14:00 21,9 °C 11,2 °C 50 % 65 % 1000,7 hPa 0,0 l/m² 19,7 km/h (3 Bft) SW 1,00 h 474 W/m² 5,0 °C 5,1 °C 27,5 km/h (5 Bft)
16.04.2024 15:00 21,8 °C 9,3 °C 51 % 79 % 1000,6 hPa 0,4 l/m² 16,1 km/h (3 Bft) S-SW 1,00 h 378 W/m² 5,9 °C 4,1 °C 22,9 km/h (4 Bft)
16.04.2024 16:00 21,7 °C 9,2 °C 51 % 78 % 1000,5 hPa 0,0 l/m² 13,1 km/h (3 Bft) S-SW 1,00 h 314 W/m² 5,5 °C 5,2 °C 17,8 km/h (3 Bft)
16.04.2024 17:00 21,7 °C 9,6 °C 51 % 76 % 1000,6 hPa 0,0 l/m² 6,9 km/h (2 Bft) SW 0,95 h 261 W/m² 5,5 °C 8,8 °C 10,4 km/h (2 Bft)
16.04.2024 18:00 21,5 °C 8,2 °C 50 % 82 % 1001,2 hPa 0,0 l/m² 4,8 km/h (1 Bft) W-NW 0,62 h 63 W/m² 5,3 °C 7,9 °C 8,6 km/h (2 Bft)
16.04.2024 19:00 21,4 °C 6,5 °C 52 % 87 % 1001,9 hPa 0,0 l/m² 2,9 km/h (1 Bft) W-NW 0,00 h 19 W/m² 4,5 °C 6,5 °C 5,1 km/h (1 Bft)
16.04.2024 20:00 21,4 °C 6,4 °C 52 % 89 % 1002,8 hPa 0,0 l/m² 2,0 km/h (1 Bft) W 0,00 h 0 W/m² 4,7 °C 6,4 °C 3,6 km/h (1 Bft)
16.04.2024 21:00 21,4 °C 6,7 °C 53 % 89 % 1003,8 hPa 0,0 l/m² 4,7 km/h (1 Bft) W 0,00 h 0 W/m² 5,1 °C 6,6 °C 8,1 km/h (2 Bft)
16.04.2024 22:00 21,4 °C 7,1 °C 53 % 88 % 1004,5 hPa 0,0 l/m² 1,1 km/h (1 Bft) NW 0,00 h 0 W/m² 5,2 °C 7,1 °C 2,1 km/h (1 Bft)
16.04.2024 23:00 21,4 °C 7,0 °C 53 % 89 % 1004,9 hPa 0,0 l/m² 1,3 km/h (1 Bft) NW 0,00 h 0 W/m² 5,4 °C 7,0 °C 2,4 km/h (1 Bft)
17.04.2024 00:00 21,4 °C 6,8 °C 53 % 88 % 1005,6 hPa 0,0 l/m² 4,1 km/h (1 Bft) NW 0,00 h 0 W/m² 4,9 °C 6,7 °C 7,0 km/h (2 Bft)
17.04.2024 01:00 21,3 °C 6,4 °C 54 % 90 % 1006,2 hPa 0,0 l/m² 1,1 km/h (1 Bft) NW 0,00 h 0 W/m² 4,9 °C 6,4 °C 2,8 km/h (1 Bft)
17.04.2024 02:00 21,3 °C 5,8 °C 53 % 90 % 1006,4 hPa 0,0 l/m² 3,6 km/h (1 Bft) NW 0,00 h 0 W/m² 4,3 °C 5,8 °C 7,2 km/h (2 Bft)
17.04.2024 03:00 21,3 °C 3,9 °C 53 % 91 % 1006,6 hPa 0,0 l/m² 2,0 km/h (1 Bft) NW 0,00 h 0 W/m² 2,6 °C 3,9 °C 4,8 km/h (1 Bft)
17.04.2024 04:00 21,3 °C 2,0 °C 53 % 92 % 1006,8 hPa 0,0 l/m² 0,6 km/h (0 Bft) W-SW 0,00 h 0 W/m² 0,9 °C 2,0 °C 1,6 km/h (1 Bft)
17.04.2024 05:00 21,3 °C 2,2 °C 53 % 94 % 1007,0 hPa 0,0 l/m² 0,7 km/h (0 Bft) W-SW 0,00 h 0 W/m² 1,3 °C 2,2 °C 1,6 km/h (1 Bft)
17.04.2024 06:00 21,3 °C 3,4 °C 53 % 94 % 1007,4 hPa 0,0 l/m² 0,0 km/h (0 Bft) W-SW 0,00 h 14 W/m² 2,6 °C 3,4 °C 0,0 km/h (0 Bft)
17.04.2024 07:00 21,3 °C 4,6 °C 52 % 94 % 1007,9 hPa 0,0 l/m² 0,0 km/h (0 Bft) W-SW 0,58 h 72 W/m² 3,8 °C 4,6 °C 0,2 km/h (0 Bft)
17.04.2024 08:00 21,4 °C 6,5 °C 52 % 93 % 1008,2 hPa 0,0 l/m² 1,7 km/h (1 Bft) W-SW 1,00 h 269 W/m² 5,4 °C 6,5 °C 3,9 km/h (1 Bft)
17.04.2024 09:00 21,5 °C 8,2 °C 52 % 83 % 1008,1 hPa 0,0 l/m² 6,7 km/h (2 Bft) W 0,98 h 298 W/m² 5,4 °C 7,6 °C 12,7 km/h (3 Bft)
17.04.2024 10:00 21,7 °C 9,3 °C 51 % 77 % 1008,2 hPa 0,0 l/m² 7,7 km/h (2 Bft) W 1,02 h 452 W/m² 5,5 °C 8,1 °C 12,7 km/h (3 Bft)
17.04.2024 11:00 22,0 °C 10,4 °C 51 % 72 % 1008,2 hPa 0,0 l/m² 7,7 km/h (2 Bft) NW 1,00 h 494 W/m² 5,5 °C 9,3 °C 13,0 km/h (3 Bft)
17.04.2024 12:00 22,2 °C 10,5 °C 51 % 70 % 1008,0 hPa 0,0 l/m² 6,9 km/h (2 Bft) W-SW 1,00 h 548 W/m² 5,2 °C 9,7 °C 10,2 km/h (2 Bft)
17.04.2024 13:00 22,1 °C 10,6 °C 51 % 69 % 1008,1 hPa 0,0 l/m² 8,8 km/h (2 Bft) SW 1,00 h 391 W/m² 5,1 °C 8,9 °C 13,4 km/h (3 Bft)
17.04.2024 14:00 22,0 °C 9,3 °C 51 % 79 % 1008,3 hPa 0,0 l/m² 12,4 km/h (2 Bft) SW 1,00 h 297 W/m² 5,8 °C 5,5 °C 17,7 km/h (3 Bft)
17.04.2024 15:00 21,9 °C 9,0 °C 51 % 75 % 1008,5 hPa 0,0 l/m² 13,3 km/h (3 Bft) SW 1,00 h 249 W/m² 4,8 °C 4,8 °C 19,3 km/h (3 Bft)
17.04.2024 16:00 21,8 °C 8,5 °C 50 % 75 % 1008,6 hPa 0,0 l/m² 7,7 km/h (2 Bft) N-NW 1,00 h 237 W/m² 4,3 °C 7,2 °C 12,5 km/h (2 Bft)
17.04.2024 17:00 21,7 °C 8,9 °C 51 % 72 % 1008,4 hPa 0,0 l/m² 2,7 km/h (1 Bft) O 1,00 h 207 W/m² 4,1 °C 8,9 °C 4,2 km/h (1 Bft)
17.04.2024 18:00 21,7 °C 8,7 °C 53 % 74 % 1008,7 hPa 0,0 l/m² 6,8 km/h (2 Bft) W 0,73 h 97 W/m² 4,3 °C 7,8 °C 11,3 km/h (2 Bft)
17.04.2024 19:00 21,4 °C 7,5 °C 52 % 79 % 1008,8 hPa 0,0 l/m² 2,9 km/h (1 Bft) W-SW 0,00 h 27 W/m² 4,1 °C 7,5 °C 5,2 km/h (1 Bft)
17.04.2024 20:00 21,3 °C 6,4 °C 53 % 81 % 1009,4 hPa 0,0 l/m² 2,6 km/h (1 Bft) W-NW 0,00 h 6 W/m² 3,4 °C 6,4 °C 4,4 km/h (1 Bft)
17.04.2024 21:00 21,4 °C 4,3 °C 53 % 89 % 1010,0 hPa 0,0 l/m² 1,9 km/h (1 Bft) W-NW 0,00 h 0 W/m² 2,6 °C 4,3 °C 3,1 km/h (1 Bft)
17.04.2024 22:00 21,4 °C 4,5 °C 53 % 91 % 1010,3 hPa 0,0 l/m² 2,1 km/h (1 Bft) W-NW 0,00 h 0 W/m² 3,1 °C 4,5 °C 3,1 km/h (1 Bft)
17.04.2024 23:00 21,3 °C 4,7 °C 53 % 91 % 1010,7 hPa 0,0 l/m² 1,3 km/h (1 Bft) W-NW 0,00 h 0 W/m² 3,4 °C 4,7 °C 2,9 km/h (1 Bft)
18.04.2024 00:00 21,3 °C 4,6 °C 53 % 92 % 1011,0 hPa 0,0 l/m² 1,9 km/h (1 Bft) W-NW 0,00 h 0 W/m² 3,4 °C 4,6 °C 3,5 km/h (1 Bft)
18.04.2024 01:00 21,3 °C 5,1 °C 53 % 90 % 1011,2 hPa 0,0 l/m² 4,1 km/h (1 Bft) W-NW 0,00 h 0 W/m² 3,7 °C 4,8 °C 7,8 km/h (2 Bft)
18.04.2024 02:00 21,3 °C 5,5 °C 53 % 88 % 1011,5 hPa 0,2 l/m² 7,4 km/h (2 Bft) N-NW 0,00 h 0 W/m² 3,7 °C 4,1 °C 12,4 km/h (2 Bft)
18.04.2024 03:00 21,3 °C 5,4 °C 53 % 89 % 1011,8 hPa 0,2 l/m² 1,6 km/h (1 Bft) NO 0,00 h 0 W/m² 3,8 °C 5,4 °C 3,7 km/h (1 Bft)
18.04.2024 04:00 21,2 °C 4,8 °C 53 % 91 % 1012,3 hPa 0,0 l/m² 1,4 km/h (1 Bft) NW 0,00 h 0 W/m² 3,4 °C 4,8 °C 2,9 km/h (1 Bft)
18.04.2024 05:00 21,3 °C 3,3 °C 53 % 92 % 1012,8 hPa 0,0 l/m² 0,4 km/h (0 Bft) NW 0,00 h 0 W/m² 2,2 °C 3,3 °C 1,5 km/h (1 Bft)
18.04.2024 06:00 21,3 °C 3,2 °C 53 % 93 % 1013,4 hPa 0,0 l/m² 1,8 km/h (1 Bft) NW 0,00 h 17 W/m² 2,3 °C 3,2 °C 3,8 km/h (1 Bft)
18.04.2024 07:00 21,2 °C 4,6 °C 52 % 93 % 1014,2 hPa 0,0 l/m² 3,4 km/h (1 Bft) NW 0,63 h 92 W/m² 3,5 °C 4,3 °C 6,8 km/h (2 Bft)
18.04.2024 08:00 21,4 °C 5,8 °C 51 % 89 % 1014,9 hPa 0,0 l/m² 4,2 km/h (1 Bft) NW 1,00 h 242 W/m² 4,1 °C 5,7 °C 7,7 km/h (2 Bft)
18.04.2024 09:00 21,6 °C 7,4 °C 51 % 79 % 1015,5 hPa 0,0 l/m² 7,6 km/h (2 Bft) N-NW 1,00 h 435 W/m² 4,1 °C 6,1 °C 12,4 km/h (2 Bft)
18.04.2024 10:00 22,0 °C 8,8 °C 51 % 70 % 1016,2 hPa 0,0 l/m² 8,0 km/h (2 Bft) N-NO 1,00 h 669 W/m² 3,8 °C 7,5 °C 13,6 km/h (3 Bft)
18.04.2024 11:00 22,4 °C 9,8 °C 50 % 63 % 1016,5 hPa 0,0 l/m² 8,5 km/h (2 Bft) N 1,00 h 655 W/m² 3,0 °C 8,2 °C 13,6 km/h (3 Bft)
18.04.2024 12:00 22,5 °C 10,5 °C 50 % 57 % 1016,6 hPa 0,0 l/m² 8,2 km/h (2 Bft) N-NW 1,00 h 654 W/m² 2,4 °C 9,1 °C 13,1 km/h (3 Bft)
18.04.2024 13:00 22,6 °C 10,8 °C 50 % 53 % 1016,5 hPa 0,0 l/m² 7,8 km/h (2 Bft) NW 1,00 h 566 W/m² 1,5 °C 9,5 °C 12,7 km/h (3 Bft)
18.04.2024 14:00 22,6 °C 11,1 °C 50 % 50 % 1016,4 hPa 0,0 l/m² 7,0 km/h (2 Bft) NW 1,00 h 389 W/m² 1,2 °C 10,3 °C 11,4 km/h (2 Bft)
18.04.2024 15:00 22,6 °C 11,5 °C 50 % 50 % 1016,4 hPa 0,0 l/m² 5,8 km/h (2 Bft) W 1,00 h 420 W/m² 1,4 °C 10,8 °C 9,6 km/h (2 Bft)
18.04.2024 16:00 22,4 °C 11,4 °C 50 % 49 % 1016,3 hPa 0,0 l/m² 6,7 km/h (2 Bft) W 1,00 h 291 W/m² 1,1 °C 10,7 °C 11,3 km/h (2 Bft)
18.04.2024 17:00 22,1 °C 11,7 °C 44 % 49 % 1016,0 hPa 0,0 l/m² 5,8 km/h (2 Bft) W 1,00 h 316 W/m² 1,4 °C 11,2 °C 9,9 km/h (2 Bft)
18.04.2024 18:00 21,7 °C 11,3 °C 40 % 54 % 1015,8 hPa 0,0 l/m² 3,6 km/h (1 Bft) W-NW 1,00 h 180 W/m² 2,4 °C 11,2 °C 6,3 km/h (2 Bft)
18.04.2024 19:00 21,8 °C 9,1 °C 45 % 69 % 1015,8 hPa 0,0 l/m² 1,5 km/h (1 Bft) W 0,17 h 31 W/m² 3,7 °C 9,0 °C 2,6 km/h (1 Bft)
18.04.2024 20:00 21,8 °C 8,0 °C 48 % 73 % 1016,3 hPa 0,0 l/m² 7,2 km/h (2 Bft) W 0,00 h 0 W/m² 3,6 °C 6,9 °C 12,4 km/h (2 Bft)
18.04.2024 21:00 21,8 °C 6,1 °C 50 % 83 % 1016,3 hPa 0,0 l/m² 2,1 km/h (1 Bft) SW 0,00 h 0 W/m² 3,5 °C 6,1 °C 3,5 km/h (1 Bft)
18.04.2024 22:00 21,8 °C 4,9 °C 53 % 85 % 1016,1 hPa 0,0 l/m² 0,5 km/h (0 Bft) SW 0,00 h 0 W/m² 2,6 °C 4,9 °C 0,8 km/h (0 Bft)
18.04.2024 23:00 21,7 °C 3,7 °C 54 % 87 % 1015,9 hPa 0,0 l/m² 0,0 km/h (0 Bft) SW 0,00 h 0 W/m² 1,8 °C 3,7 °C 0,2 km/h (0 Bft)
19.04.2024 00:00 21,7 °C 3,5 °C 55 % 89 % 1015,6 hPa 0,0 l/m² 0,9 km/h (0 Bft) SW 0,00 h 0 W/m² 1,9 °C 3,5 °C 1,6 km/h (1 Bft)
19.04.2024 01:00 21,7 °C 4,3 °C 55 % 88 % 1015,1 hPa 0,0 l/m² 0,8 km/h (0 Bft) S-SW 0,00 h 0 W/m² 2,6 °C 4,3 °C 2,0 km/h (1 Bft)
19.04.2024 02:00 21,7 °C 4,7 °C 56 % 88 % 1014,5 hPa 0,0 l/m² 2,2 km/h (1 Bft) SW 0,00 h 0 W/m² 2,9 °C 4,7 °C 4,9 km/h (1 Bft)
19.04.2024 03:00 21,6 °C 4,7 °C 55 % 88 % 1013,5 hPa 0,0 l/m² 6,8 km/h (2 Bft) S-SW 0,00 h 0 W/m² 2,8 °C 3,6 °C 9,9 km/h (2 Bft)
19.04.2024 04:00 21,7 °C 4,3 °C 55 % 87 % 1012,6 hPa 0,0 l/m² 7,8 km/h (2 Bft) S-SW 0,00 h 0 W/m² 2,4 °C 3,0 °C 11,3 km/h (2 Bft)
19.04.2024 05:00 21,7 °C 4,4 °C 55 % 86 % 1011,7 hPa 0,0 l/m² 6,5 km/h (2 Bft) S-SW 0,00 h 0 W/m² 2,4 °C 3,7 °C 9,4 km/h (2 Bft)
19.04.2024 06:00 21,6 °C 5,2 °C 54 % 84 % 1010,6 hPa 0,0 l/m² 9,0 km/h (2 Bft) S-SW 0,00 h 13 W/m² 2,7 °C 3,0 °C 12,3 km/h (2 Bft)
19.04.2024 07:00 21,5 °C 6,3 °C 53 % 81 % 1009,7 hPa 0,0 l/m² 12,9 km/h (3 Bft) S-SW 0,13 h 37 W/m² 3,3 °C 1,9 °C 17,8 km/h (3 Bft)
19.04.2024 08:00 21,6 °C 6,6 °C 53 % 81 % 1008,6 hPa 0,0 l/m² 23,7 km/h (4 Bft) S-SW 1,00 h 97 W/m² 3,6 °C -2,2 °C 33,8 km/h (5 Bft)
19.04.2024 09:00 21,7 °C 7,1 °C 51 % 78 % 1007,1 hPa 0,0 l/m² 24,4 km/h (4 Bft) S-SW 1,00 h 127 W/m² 3,5 °C -1,8 °C 35,3 km/h (5 Bft)
19.04.2024 10:00 21,5 °C 7,1 °C 50 % 78 % 1006,1 hPa 0,2 l/m² 25,5 km/h (4 Bft) SW 1,00 h 109 W/m² 3,5 °C -2,1 °C 36,6 km/h (5 Bft)
19.04.2024 11:00 21,4 °C 6,0 °C 50 % 85 % 1005,7 hPa 0,8 l/m² 20,5 km/h (4 Bft) SW 1,00 h 83 W/m² 3,7 °C -2,0 °C 29,1 km/h (5 Bft)
19.04.2024 12:00 21,4 °C 5,4 °C 51 % 90 % 1005,1 hPa 1,0 l/m² 18,0 km/h (3 Bft) SW 1,00 h 112 W/m² 3,9 °C -1,7 °C 25,6 km/h (4 Bft)
19.04.2024 13:00 21,4 °C 6,7 °C 51 % 90 % 1004,2 hPa 0,0 l/m² 20,4 km/h (4 Bft) SW 1,00 h 250 W/m² 5,2 °C -1,0 °C 28,2 km/h (5 Bft)
19.04.2024 14:00 21,6 °C 8,9 °C 50 % 85 % 1003,4 hPa 0,0 l/m² 25,4 km/h (4 Bft) SW 1,00 h 531 W/m² 6,4 °C 0,3 °C 35,2 km/h (5 Bft)
19.04.2024 15:00 21,7 °C 8,6 °C 51 % 84 % 1003,0 hPa 0,2 l/m² 21,1 km/h (4 Bft) SW 1,00 h 339 W/m² 6,0 °C 1,2 °C 29,4 km/h (5 Bft)
19.04.2024 16:00 21,7 °C 8,8 °C 51 % 82 % 1002,7 hPa 0,0 l/m² 19,0 km/h (3 Bft) SW 1,00 h 223 W/m² 6,0 °C 2,1 °C 26,5 km/h (4 Bft)
19.04.2024 17:00 21,5 °C 8,3 °C 51 % 84 % 1002,4 hPa 0,0 l/m² 16,9 km/h (3 Bft) SW 0,87 h 103 W/m² 5,8 °C 2,4 °C 24,0 km/h (4 Bft)
19.04.2024 18:00 21,5 °C 7,4 °C 53 % 90 % 1002,5 hPa 1,4 l/m² 13,1 km/h (3 Bft) SW 0,00 h 20 W/m² 5,8 °C 3,1 °C 19,0 km/h (3 Bft)
19.04.2024 19:00 21,8 °C 6,6 °C 57 % 91 % 1002,6 hPa 0,6 l/m² 7,9 km/h (2 Bft) SW 0,00 h 10 W/m² 5,3 °C 5,3 °C 12,0 km/h (2 Bft)
19.04.2024 20:00 21,8 °C 6,0 °C 57 % 92 % 1002,9 hPa 0,0 l/m² 7,4 km/h (2 Bft) SW 0,00 h 6 W/m² 4,8 °C 4,9 °C 10,4 km/h (2 Bft)
19.04.2024 21:00 21,9 °C 5,4 °C 57 % 92 % 1003,1 hPa 0,0 l/m² 5,9 km/h (2 Bft) SW 0,00 h 0 W/m² 4,2 °C 4,9 °C 8,6 km/h (2 Bft)
19.04.2024 22:00 22,0 °C 5,2 °C 58 % 92 % 1003,2 hPa 0,0 l/m² 5,7 km/h (2 Bft) SW 0,00 h 0 W/m² 4,0 °C 4,7 °C 9,1 km/h (2 Bft)
19.04.2024 23:00 21,8 °C 5,6 °C 56 % 92 % 1003,4 hPa 0,2 l/m² 11,3 km/h (2 Bft) SW 0,00 h 0 W/m² 4,4 °C 2,0 °C 16,3 km/h (3 Bft)
20.04.2024 00:00 21,6 °C 5,7 °C 55 % 92 % 1003,6 hPa 0,2 l/m² 9,4 km/h (2 Bft) W-SW 0,00 h 0 W/m² 4,5 °C 3,3 °C 14,4 km/h (3 Bft)
20.04.2024 01:00 21,6 °C 5,9 °C 54 % 92 % 1004,0 hPa 0,8 l/m² 12,3 km/h (2 Bft) W 0,00 h 0 W/m² 4,7 °C 1,8 °C 19,1 km/h (3 Bft)
20.04.2024 02:00 21,5 °C 5,9 °C 54 % 93 % 1004,6 hPa 0,4 l/m² 8,5 km/h (2 Bft) W-NW 0,00 h 0 W/m² 4,7 °C 4,0 °C 16,8 km/h (3 Bft)
20.04.2024 03:00 21,4 °C 5,8 °C 54 % 92 % 1005,7 hPa 0,2 l/m² 14,1 km/h (3 Bft) W-NW 0,00 h 0 W/m² 4,6 °C 0,7 °C 25,0 km/h (4 Bft)
20.04.2024 04:00 21,4 °C 5,6 °C 54 % 92 % 1007,2 hPa 0,6 l/m² 15,9 km/h (3 Bft) NW 0,00 h 0 W/m² 4,3 °C -0,5 °C 27,1 km/h (5 Bft)
20.04.2024 05:00 21,4 °C 5,2 °C 53 % 91 % 1008,7 hPa 0,2 l/m² 15,5 km/h (3 Bft) NW 0,00 h 0 W/m² 3,9 °C -0,7 °C 26,6 km/h (4 Bft)
20.04.2024 06:00 21,4 °C 5,0 °C 53 % 91 % 1010,1 hPa 0,0 l/m² 13,7 km/h (3 Bft) NW 0,00 h 12 W/m² 3,6 °C -0,1 °C 23,5 km/h (4 Bft)
20.04.2024 07:00 21,3 °C 5,1 °C 53 % 89 % 1011,5 hPa 0,0 l/m² 13,6 km/h (3 Bft) N-NW 0,68 h 61 W/m² 3,5 °C 0,2 °C 24,4 km/h (4 Bft)
20.04.2024 08:00 21,4 °C 5,5 °C 55 % 86 % 1013,0 hPa 0,0 l/m² 13,8 km/h (3 Bft) NW 1,00 h 135 W/m² 3,3 °C 0,4 °C 23,6 km/h (4 Bft)
20.04.2024 09:00 21,8 °C 6,0 °C 55 % 82 % 1014,2 hPa 0,0 l/m² 12,9 km/h (3 Bft) NW 0,98 h 201 W/m² 3,1 °C 1,5 °C 21,9 km/h (4 Bft)
20.04.2024 10:00 22,0 °C 7,1 °C 52 % 75 % 1015,4 hPa 0,0 l/m² 14,7 km/h (3 Bft) NW 1,02 h 497 W/m² 3,0 °C 1,9 °C 24,4 km/h (4 Bft)
20.04.2024 11:00 22,2 °C 8,7 °C 50 % 68 % 1016,2 hPa 0,0 l/m² 14,9 km/h (3 Bft) N-NW 0,98 h 741 W/m² 3,1 °C 3,7 °C 24,0 km/h (4 Bft)
20.04.2024 12:00 22,7 °C 9,5 °C 53 % 63 % 1016,6 hPa 0,0 l/m² 13,1 km/h (3 Bft) N-NW 1,02 h 646 W/m² 2,8 °C 5,5 °C 21,4 km/h (4 Bft)
20.04.2024 13:00 22,3 °C 8,9 °C 51 % 63 % 1016,9 hPa 0,0 l/m² 11,4 km/h (2 Bft) N-NW 1,00 h 317 W/m² 2,3 °C 5,7 °C 17,2 km/h (3 Bft)
20.04.2024 14:00 22,0 °C 8,4 °C 52 % 68 % 1017,3 hPa 0,0 l/m² 10,6 km/h (2 Bft) W 1,00 h 354 W/m² 2,9 °C 5,5 °C 16,4 km/h (3 Bft)
20.04.2024 15:00 21,9 °C 9,1 °C 52 % 71 % 1017,6 hPa 0,2 l/m² 11,9 km/h (2 Bft) W 1,00 h 403 W/m² 4,0 °C 5,7 °C 17,4 km/h (3 Bft)
20.04.2024 16:00 21,8 °C 6,4 °C 52 % 83 % 1018,3 hPa 0,8 l/m² 9,5 km/h (2 Bft) W 1,00 h 138 W/m² 3,8 °C 4,0 °C 14,5 km/h (3 Bft)
20.04.2024 17:00 21,7 °C 5,7 °C 52 % 87 % 1018,4 hPa 0,0 l/m² 7,4 km/h (2 Bft) W-SW 1,00 h 169 W/m² 3,7 °C 4,0 °C 10,9 km/h (2 Bft)
20.04.2024 18:00 21,6 °C 6,3 °C 52 % 84 % 1018,6 hPa 0,2 l/m² 7,3 km/h (2 Bft) W 0,60 h 74 W/m² 3,8 °C 5,0 °C 12,4 km/h (2 Bft)
20.04.2024 19:00 21,6 °C 5,2 °C 52 % 86 % 1018,8 hPa 0,0 l/m² 6,1 km/h (2 Bft) N-NW 0,08 h 30 W/m² 3,1 °C 4,5 °C 9,3 km/h (2 Bft)
20.04.2024 20:00 21,6 °C 4,8 °C 52 % 88 % 1019,0 hPa 0,0 l/m² 0,7 km/h (0 Bft) N-NW 0,00 h 5 W/m² 3,0 °C 4,8 °C 1,3 km/h (1 Bft)
20.04.2024 21:00 21,6 °C 4,4 °C 52 % 91 % 1019,2 hPa 0,0 l/m² 0,3 km/h (0 Bft) N-NW 0,00 h 0 W/m² 3,1 °C 4,4 °C 1,0 km/h (0 Bft)
20.04.2024 22:00 21,5 °C 4,0 °C 52 % 92 % 1019,2 hPa 0,0 l/m² 0,7 km/h (0 Bft) W 0,00 h 0 W/m² 2,8 °C 4,0 °C 1,4 km/h (1 Bft)
20.04.2024 23:00 21,4 °C 2,2 °C 52 % 92 % 1019,4 hPa 0,0 l/m² 1,1 km/h (1 Bft) W 0,00 h 0 W/m² 1,1 °C 2,2 °C 2,0 km/h (1 Bft)
21.04.2024 00:00 21,5 °C 1,2 °C 52 % 93 % 1019,4 hPa 0,0 l/m² 0,1 km/h (0 Bft) W 0,00 h 0 W/m² 0,2 °C 1,2 °C 0,3 km/h (0 Bft)
21.04.2024 01:00 21,4 °C 0,4 °C 52 % 94 % 1019,2 hPa 0,0 l/m² 0,2 km/h (0 Bft) W 0,00 h 0 W/m² -0,6 °C 0,4 °C 0,4 km/h (0 Bft)
21.04.2024 02:00 21,4 °C 0,5 °C 52 % 94 % 1019,0 hPa 0,0 l/m² 0,0 km/h (0 Bft) W 0,00 h 0 W/m² -0,4 °C 0,5 °C 0,1 km/h (0 Bft)
21.04.2024 03:00 21,3 °C 1,4 °C 52 % 94 % 1019,0 hPa 0,0 l/m² 0,0 km/h (0 Bft) W 0,00 h 0 W/m² 0,6 °C 1,4 °C 0,1 km/h (0 Bft)
21.04.2024 04:00 21,4 °C 0,6 °C 52 % 94 % 1019,1 hPa 0,0 l/m² 0,0 km/h (0 Bft) W 0,00 h 0 W/m² -0,3 °C 0,6 °C 0,0 km/h (0 Bft)
21.04.2024 05:00 21,3 °C 1,6 °C 51 % 95 % 1019,1 hPa 0,0 l/m² 0,4 km/h (0 Bft) W 0,00 h 0 W/m² 0,8 °C 1,6 °C 1,3 km/h (1 Bft)
21.04.2024 06:00 21,3 °C 2,7 °C 51 % 95 % 1019,4 hPa 0,0 l/m² 4,3 km/h (1 Bft) NO 0,03 h 23 W/m² 2,0 °C 2,6 °C 8,5 km/h (2 Bft)
21.04.2024 07:00 21,3 °C 3,2 °C 51 % 94 % 1020,0 hPa 0,0 l/m² 6,8 km/h (2 Bft) NO 0,82 h 72 W/m² 2,3 °C 2,3 °C 13,5 km/h (3 Bft)
21.04.2024 08:00 21,3 °C 3,7 °C 51 % 90 % 1020,7 hPa 0,0 l/m² 8,8 km/h (2 Bft) NO 0,90 h 133 W/m² 2,3 °C 1,5 °C 17,8 km/h (3 Bft)
21.04.2024 09:00 21,3 °C 4,9 °C 51 % 84 % 1021,2 hPa 0,0 l/m² 10,2 km/h (2 Bft) NO 1,02 h 229 W/m² 2,3 °C 1,9 °C 19,3 km/h (3 Bft)
21.04.2024 10:00 21,2 °C 6,6 °C 51 % 72 % 1021,5 hPa 0,0 l/m² 12,2 km/h (2 Bft) NO 1,00 h 393 W/m² 1,9 °C 2,7 °C 21,4 km/h (4 Bft)
21.04.2024 11:00 21,2 °C 6,8 °C 50 % 65 % 1021,9 hPa 0,0 l/m² 12,2 km/h (2 Bft) NO 1,00 h 352 W/m² 0,7 °C 2,8 °C 22,1 km/h (4 Bft)
21.04.2024 12:00 21,4 °C 7,4 °C 50 % 61 % 1022,1 hPa 0,0 l/m² 11,1 km/h (2 Bft) N-NO 0,98 h 437 W/m² 0,3 °C 4,1 °C 19,6 km/h (3 Bft)
21.04.2024 13:00 21,6 °C 8,3 °C 51 % 57 % 1022,2 hPa 0,0 l/m² 11,4 km/h (2 Bft) NO 1,00 h 427 W/m² 0,3 °C 5,0 °C 20,3 km/h (4 Bft)
21.04.2024 14:00 21,6 °C 9,3 °C 50 % 54 % 1022,3 hPa 0,0 l/m² 12,0 km/h (2 Bft) O-NO 1,00 h 541 W/m² 0,5 °C 5,8 °C 19,7 km/h (3 Bft)
21.04.2024 15:00 21,7 °C 10,2 °C 49 % 51 % 1022,2 hPa 0,0 l/m² 10,7 km/h (2 Bft) NO 1,02 h 647 W/m² 0,5 °C 7,5 °C 19,4 km/h (3 Bft)
21.04.2024 16:00 21,8 °C 9,7 °C 50 % 49 % 1022,2 hPa 0,0 l/m² 10,9 km/h (2 Bft) NO 0,98 h 340 W/m² -0,4 °C 6,8 °C 19,6 km/h (3 Bft)
21.04.2024 17:00 21,7 °C 9,2 °C 50 % 49 % 1022,4 hPa 0,0 l/m² 10,2 km/h (2 Bft) N-NO 1,00 h 237 W/m² -0,8 °C 6,7 °C 18,9 km/h (3 Bft)
21.04.2024 18:00 21,6 °C 8,4 °C 52 % 51 % 1022,6 hPa 0,0 l/m² 7,9 km/h (2 Bft) N-NO 1,02 h 127 W/m² -1,0 °C 7,2 °C 15,1 km/h (3 Bft)
21.04.2024 19:00 21,7 °C 8,0 °C 53 % 55 % 1022,9 hPa 0,0 l/m² 5,6 km/h (2 Bft) N 0,70 h 65 W/m² -0,4 °C 7,7 °C 10,3 km/h (2 Bft)
21.04.2024 20:00 21,7 °C 6,8 °C 54 % 62 % 1023,3 hPa 0,0 l/m² 5,6 km/h (2 Bft) NO 0,00 h 10 W/m² -0,1 °C 6,1 °C 10,5 km/h (2 Bft)
21.04.2024 21:00 21,8 °C 5,9 °C 54 % 69 % 1023,8 hPa 0,0 l/m² 8,0 km/h (2 Bft) N 0,00 h 0 W/m² 0,7 °C 3,7 °C 13,3 km/h (3 Bft)
21.04.2024 22:00 21,7 °C 5,1 °C 53 % 76 % 1024,1 hPa 0,0 l/m² 5,8 km/h (2 Bft) N 0,00 h 0 W/m² 1,2 °C 4,8 °C 10,0 km/h (2 Bft)
21.04.2024 23:00 21,6 °C 4,3 °C 53 % 81 % 1024,2 hPa 0,0 l/m² 3,7 km/h (1 Bft) N 0,00 h 0 W/m² 1,4 °C 4,0 °C 6,8 km/h (2 Bft)
Min-Datum _ 21.04.24 21.04.24 18.04.24 21.04.24 15.04.24 - 21.04.24 - - - 21.04.24 19.04.24 21.04.24
_ Min-Zeit 11:01 01:36 17:56 17:40 20:24 - 23:47 - - - 17:58 10:59 23:47
Minimum _ 21,2 °C -0,2 °C 36 % 45 % 997,6 hPa - 0,0 km/h (0 Bft) - - - -1,7 °C -5,0 °C 0,0 km/h (0 Bft)
Max-Datum _ 20.04.24 15.04.24 19.04.24 21.04.24 21.04.24 19.04.24 15.04.24 - 19.04.24 20.04.24 15.04.24 15.04.24 15.04.24
_ Max-Zeit 12:29 17:34 22:02 07:00 23:11 18:03 21:13 - 17:37 12:26 13:48 17:31 21:13
Maximum _ 22,9 °C 16,9 °C 58 % 95 % 1024,3 hPa 1,4 l/m² 57,8 km/h
W-SW (7 Bft)
- 0,10 h 1048 W/m² 10,7 °C 16,1 °C 82,1 km/h
W-SW (9 Bft)
Durchschnitt _ 21,7 °C 7,1 °C 52 % 80 % 1010,7 hPa #11,6 l/m² 8,7 km/h (2 Bft) SW #78:32 h 153 W/m² 3,7 °C 4,7 °C 13,5 km/h (3 Bft)
© 2009 Mathias Hoßbach